Time;durP1;ratioP1;P1;durP2;ratioP2;P2;SDS_P1;SDS_P2;PMS_P1;PMS_P2;Temp;Humidity;BMP_temperature;BMP_pressure;BME280_temperature;BME280_humidity;BME280_pressure;Samples;Min_cycle;Max_cycle;Signal;HPM_P1;HPM_P2
2021/07/06 00:02:18;;;;;;;19.70;9.75;;;;;;;12.73;94.19;97778.09;5060327;28;20090;-73
2021/07/06 00:04:45;;;;;;;21.35;10.82;;;;;;;12.74;94.33;97770.78;5051275;28;20037;-72
2021/07/06 00:07:12;;;;;;;16.25;9.55;;;;;;;12.72;94.14;97759.50;5068894;28;20036;-72
2021/07/06 00:09:38;;;;;;;24.45;9.93;;;;;;;12.73;94.35;97766.50;5072055;28;20048;-72
2021/07/06 00:12:04;;;;;;;23.48;9.93;;;;;;;12.73;94.24;97758.38;5066597;28;20033;-73
2021/07/06 00:14:30;;;;;;;23.73;9.48;;;;;;;12.67;94.14;97748.81;5063712;28;20051;-72
2021/07/06 00:16:56;;;;;;;20.73;10.02;;;;;;;12.64;94.72;97741.31;5056765;28;20029;-72
2021/07/06 00:19:22;;;;;;;19.00;10.10;;;;;;;12.66;94.74;97733.72;5058340;28;20106;-72
2021/07/06 00:21:48;;;;;;;32.53;10.35;;;;;;;12.66;94.38;97739.91;5059323;28;20513;-72
2021/07/06 00:24:13;;;;;;;23.67;10.65;;;;;;;12.61;94.48;97748.16;5054997;28;20033;-72
2021/07/06 00:26:39;;;;;;;25.27;10.88;;;;;;;12.59;94.94;97729.53;5064565;28;20409;-71
2021/07/06 00:29:04;;;;;;;24.90;10.75;;;;;;;12.60;95.01;97722.25;5065232;28;20366;-71
2021/07/06 00:31:30;;;;;;;20.23;11.25;;;;;;;12.58;95.39;97724.44;5066598;28;20492;-71
2021/07/06 00:33:56;;;;;;;15.65;8.75;;;;;;;12.55;94.11;97722.34;5070820;28;20025;-71
2021/07/06 00:36:21;;;;;;;10.70;6.35;;;;;;;12.44;93.47;97714.50;5054215;28;20109;-73
2021/07/06 00:38:48;;;;;;;11.07;5.90;;;;;;;12.31;93.21;97712.59;5057115;28;20475;-72
2021/07/06 00:41:14;;;;;;;11.75;6.32;;;;;;;12.27;93.57;97711.63;5053143;28;20036;-71
2021/07/06 00:43:40;;;;;;;14.45;5.68;;;;;;;12.23;93.63;97711.44;5057205;28;20398;-72
2021/07/06 00:46:06;;;;;;;10.73;5.53;;;;;;;12.22;93.72;97700.94;5049562;28;20483;-71
2021/07/06 00:48:33;;;;;;;13.30;5.35;;;;;;;12.19;94.20;97694.25;5065111;28;20375;-72
2021/07/06 00:50:59;;;;;;;10.77;4.40;;;;;;;12.10;93.24;97688.75;5062837;28;20032;-73
2021/07/06 00:53:24;;;;;;;9.98;4.97;;;;;;;12.11;93.73;97671.47;5060771;28;20037;-73
2021/07/06 00:55:53;;;;;;;12.73;4.80;;;;;;;12.09;94.33;97675.59;5055981;28;20033;-73
2021/07/06 00:58:20;;;;;;;10.23;4.97;;;;;;;12.04;94.32;97656.81;5054161;28;20834;-72
2021/07/06 01:00:46;;;;;;;7.30;3.42;;;;;;;12.06;93.47;97651.91;5068738;28;20036;-73
2021/07/06 01:03:12;;;;;;;4.93;3.30;;;;;;;12.07;93.63;97643.50;5059411;28;20169;-74
2021/07/06 01:05:39;;;;;;;14.00;3.90;;;;;;;12.05;94.23;97642.22;5061472;28;20039;-74
2021/07/06 01:08:08;;;;;;;6.20;2.70;;;;;;;11.97;93.83;97631.03;5066439;28;20035;-72
2021/07/06 01:10:36;;;;;;;5.97;3.05;;;;;;;11.91;93.51;97634.13;5072048;28;20028;-73
2021/07/06 01:13:03;;;;;;;6.00;2.90;;;;;;;11.90;92.77;97627.13;5064249;28;20139;-74
2021/07/06 01:15:30;;;;;;;5.15;2.83;;;;;;;11.84;93.47;97615.66;5056973;28;20471;-75
2021/07/06 01:18:04;;;;;;;5.93;3.30;;;;;;;11.85;94.51;97601.84;5064316;28;20033;-76
2021/07/06 01:20:31;;;;;;;8.15;3.33;;;;;;;11.86;95.21;97589.97;5048965;28;20069;-76
2021/07/06 01:22:56;;;;;;;6.30;2.70;;;;;;;11.81;94.19;97590.09;5069016;28;20025;-76
2021/07/06 01:25:22;;;;;;;3.90;2.63;;;;;;;11.77;93.76;97581.00;5054302;28;20398;-76
2021/07/06 01:27:48;;;;;;;7.43;3.00;;;;;;;11.76;93.76;97574.00;5069545;28;20024;-74
2021/07/06 01:30:16;;;;;;;10.80;2.63;;;;;;;11.70;94.37;97564.44;5059595;28;20029;-75
2021/07/06 01:32:43;;;;;;;9.45;2.70;;;;;;;11.69;94.75;97563.66;5062171;28;20548;-74
2021/07/06 01:35:11;;;;;;;5.78;2.45;;;;;;;11.71;94.64;97550.69;5048158;28;20032;-75
2021/07/06 01:37:42;;;;;;;8.65;2.40;;;;;;;11.67;94.53;97546.19;5066001;28;20051;-76
2021/07/06 01:40:08;;;;;;;10.30;2.47;;;;;;;11.60;95.37;97545.78;5061443;28;20657;-76
2021/07/06 01:42:33;;;;;;;7.88;2.65;;;;;;;11.57;96.74;97534.50;5058473;28;20116;-76
2021/07/06 01:45:06;;;;;;;7.82;2.60;;;;;;;11.63;97.01;97537.91;5059564;28;20029;-74
2021/07/06 01:47:36;;;;;;;6.53;3.55;;;;;;;11.66;96.95;97540.00;5071852;28;20047;-76
2021/07/06 01:50:01;;;;;;;6.32;2.97;;;;;;;11.62;96.99;97525.53;5050441;28;20064;-76
2021/07/06 01:52:27;;;;;;;5.45;3.60;;;;;;;11.56;96.97;97524.06;5046747;28;20101;-77
2021/07/06 01:54:53;;;;;;;11.30;3.75;;;;;;;11.57;97.76;97510.25;5050814;28;20394;-80
2021/07/06 01:57:18;;;;;;;10.93;3.58;;;;;;;11.55;97.91;97503.59;5054414;28;20067;-78
2021/07/06 01:59:43;;;;;;;7.85;3.40;;;;;;;11.59;97.66;97506.47;5052499;28;20486;-75
2021/07/06 02:02:09;;;;;;;6.28;3.47;;;;;;;11.53;97.02;97495.00;5053323;28;20025;-75
2021/07/06 02:04:34;;;;;;;7.78;2.97;;;;;;;11.60;97.15;97498.06;5057359;28;20063;-75
2021/07/06 02:07:00;;;;;;;7.13;3.67;;;;;;;11.55;97.16;97493.59;5051731;28;20037;-75
2021/07/06 02:09:26;;;;;;;5.97;2.90;;;;;;;11.52;97.76;97488.81;5060681;28;20029;-76
2021/07/06 02:11:51;;;;;;;5.32;2.78;;;;;;;11.55;98.03;97487.41;5064153;28;20945;-75
2021/07/06 02:14:17;;;;;;;7.93;3.47;;;;;;;11.56;98.63;97480.91;5055581;28;20029;-75
2021/07/06 02:16:43;;;;;;;11.68;3.60;;;;;;;11.56;98.19;97479.00;5049553;28;20530;-74
2021/07/06 02:19:09;;;;;;;5.55;3.13;;;;;;;11.60;98.10;97481.09;5056019;28;20038;-75
2021/07/06 02:21:35;;;;;;;5.68;2.88;;;;;;;11.62;98.41;97473.50;5071686;28;20047;-76
2021/07/06 02:24:00;;;;;;;7.82;3.35;;;;;;;11.60;99.33;97473.81;5063423;28;20486;-75
2021/07/06 02:26:26;;;;;;;4.18;2.80;;;;;;;11.63;99.10;97473.19;5049162;28;20033;-76
2021/07/06 02:28:51;;;;;;;8.90;3.72;;;;;;;11.58;99.39;97462.53;5052496;28;20052;-74
2021/07/06 02:31:17;;;;;;;7.65;3.08;;;;;;;11.63;98.95;97462.41;5066087;28;20024;-74
2021/07/06 02:33:43;;;;;;;7.00;3.40;;;;;;;11.64;98.38;97452.41;5053747;28;20470;-74
2021/07/06 02:36:09;;;;;;;9.85;3.20;;;;;;;11.59;98.66;97442.56;5057361;28;20044;-74
2021/07/06 02:38:36;;;;;;;4.50;3.33;;;;;;;11.55;98.74;97438.88;5063109;28;20490;-74
2021/07/06 02:41:01;;;;;;;7.85;4.18;;;;;;;11.60;98.82;97438.75;5058884;28;20081;-72
2021/07/06 02:43:27;;;;;;;7.95;4.60;;;;;;;11.65;99.27;97435.94;5057231;28;20040;-72
2021/07/06 02:45:53;;;;;;;7.90;4.70;;;;;;;11.69;99.89;97450.41;5072637;28;20032;-73
2021/07/06 02:48:18;;;;;;;7.47;5.18;;;;;;;11.72;99.89;97432.81;5059892;28;20052;-73
2021/07/06 02:50:44;;;;;;;15.85;5.20;;;;;;;11.73;100.00;97431.69;5058413;28;20083;-73
2021/07/06 02:53:11;;;;;;;6.75;4.30;;;;;;;11.82;99.56;97424.47;5053964;28;20101;-72
2021/07/06 02:55:38;;;;;;;5.90;4.38;;;;;;;11.89;99.00;97412.44;5055463;28;20040;-73
2021/07/06 02:58:04;;;;;;;9.15;4.45;;;;;;;11.86;98.89;97411.19;5047564;28;20064;-73
2021/07/06 03:00:31;;;;;;;6.13;4.72;;;;;;;11.82;99.40;97421.78;5059522;28;20053;-72
2021/07/06 03:03:04;;;;;;;6.10;4.78;;;;;;;11.83;99.71;97412.56;5064771;28;20085;-72
2021/07/06 03:05:31;;;;;;;8.38;4.80;;;;;;;11.89;99.79;97404.34;5051131;28;20033;-72
2021/07/06 03:07:59;;;;;;;3.78;3.20;;;;;;;11.85;99.13;97391.47;5061101;28;20067;-72
2021/07/06 03:10:34;;;;;;;4.90;3.40;;;;;;;11.93;98.78;97394.53;5037197;28;20513;-71
2021/07/06 03:13:01;;;;;;;7.03;3.35;;;;;;;11.93;99.06;97389.16;5049645;28;20041;-71
2021/07/06 03:15:28;;;;;;;3.63;3.25;;;;;;;11.96;99.09;97389.34;5046776;28;20074;-72
2021/07/06 03:17:55;;;;;;;4.80;3.42;;;;;;;11.93;99.19;97383.75;5057233;28;20106;-71
2021/07/06 03:20:23;;;;;;;6.13;4.47;;;;;;;11.91;99.20;97378.69;5050473;28;20076;-72
2021/07/06 03:22:49;;;;;;;7.63;4.97;;;;;;;11.92;99.64;97377.56;5052143;28;20029;-71
2021/07/06 03:25:18;;;;;;;5.07;4.45;;;;;;;11.95;99.27;97381.53;5058550;28;20028;-73
2021/07/06 03:27:44;;;;;;;5.03;3.83;;;;;;;11.98;98.98;97372.81;5049857;28;20021;-71
2021/07/06 03:30:12;;;;;;;5.45;4.25;;;;;;;12.02;99.30;97375.75;5050322;28;20059;-71
2021/07/06 03:32:38;;;;;;;6.45;4.07;;;;;;;12.06;99.56;97379.41;5050142;28;20035;-70
2021/07/06 03:35:06;;;;;;;5.70;4.88;;;;;;;12.05;99.56;97370.50;5066413;28;20393;-70
2021/07/06 03:37:31;;;;;;;7.18;5.40;;;;;;;12.04;99.17;97373.53;5048732;28;20040;-70
2021/07/06 03:39:57;;;;;;;6.55;5.95;;;;;;;12.04;98.91;97366.22;5069802;28;20025;-71
2021/07/06 03:42:23;;;;;;;8.65;5.75;;;;;;;12.05;99.39;97367.03;5059432;28;20039;-71
2021/07/06 03:44:49;;;;;;;8.55;7.30;;;;;;;12.05;99.51;97359.72;5056555;28;20025;-71
2021/07/06 03:47:14;;;;;;;8.98;7.15;;;;;;;12.05;99.50;97367.81;5051160;28;20139;-71
2021/07/06 03:49:40;;;;;;;13.50;7.32;;;;;;;12.09;99.39;97368.78;5055590;28;20024;-71
2021/07/06 03:52:06;;;;;;;8.18;7.15;;;;;;;12.09;99.37;97362.59;5046234;28;20537;-70
2021/07/06 03:54:32;;;;;;;9.98;6.25;;;;;;;12.09;99.36;97365.31;5061899;28;20068;-73
2021/07/06 03:56:58;;;;;;;7.60;6.80;;;;;;;12.07;99.10;97359.41;5047846;28;20029;-71
2021/07/06 03:59:24;;;;;;;7.45;6.68;;;;;;;12.11;99.48;97361.16;5046432;28;20059;-71
2021/07/06 04:01:50;;;;;;;10.50;7.00;;;;;;;12.14;99.36;97368.63;5066917;28;20458;-71
2021/07/06 04:04:15;;;;;;;10.02;7.63;;;;;;;12.17;99.19;97366.44;5065038;28;20109;-72
2021/07/06 04:06:41;;;;;;;11.13;7.65;;;;;;;12.20;99.39;97368.50;5046438;28;20490;-72
2021/07/06 04:09:06;;;;;;;9.70;7.80;;;;;;;12.23;99.26;97367.88;5065342;28;20037;-72
2021/07/06 04:11:32;;;;;;;8.15;7.20;;;;;;;12.23;99.39;97357.91;5052840;28;20033;-70
2021/07/06 04:13:58;;;;;;;7.95;6.93;;;;;;;12.25;99.13;97362.97;5051169;28;20060;-71
2021/07/06 04:16:24;;;;;;;8.93;7.45;;;;;;;12.24;98.93;97353.28;5048070;28;20058;-70
2021/07/06 04:18:49;;;;;;;9.75;7.40;;;;;;;12.28;99.19;97349.66;5058646;28;20606;-70
2021/07/06 04:21:15;;;;;;;10.32;7.90;;;;;;;12.29;99.06;97339.63;5057394;28;20055;-71
2021/07/06 04:23:40;;;;;;;13.02;8.07;;;;;;;12.30;99.01;97344.75;5048917;28;20398;-71
2021/07/06 04:26:07;;;;;;;10.77;8.05;;;;;;;12.31;99.18;97348.22;5063366;28;20115;-71
2021/07/06 04:28:33;;;;;;;12.93;8.65;;;;;;;12.33;99.15;97345.22;5054655;28;20033;-71
2021/07/06 04:30:59;;;;;;;12.40;7.30;;;;;;;12.32;98.92;97340.94;5051638;28;20025;-71
2021/07/06 04:33:25;;;;;;;11.70;8.15;;;;;;;12.36;99.04;97339.19;5047748;28;20036;-70
2021/07/06 04:35:51;;;;;;;13.85;8.52;;;;;;;12.34;98.89;97341.41;5071179;28;20470;-71
2021/07/06 04:38:17;;;;;;;15.38;9.07;;;;;;;12.37;98.80;97332.69;5062488;28;20409;-71
2021/07/06 04:40:42;;;;;;;12.88;9.07;;;;;;;12.35;98.83;97333.00;5048952;28;20036;-71
2021/07/06 04:43:08;;;;;;;14.20;9.68;;;;;;;12.37;98.85;97330.81;5061251;28;20033;-71
2021/07/06 04:45:34;;;;;;;23.05;11.65;;;;;;;12.40;99.11;97334.75;5060675;28;20036;-70
2021/07/06 04:48:00;;;;;;;20.92;12.05;;;;;;;12.39;99.25;97325.88;5056571;28;20061;-71
2021/07/06 04:50:26;;;;;;;16.38;10.43;;;;;;;12.44;98.85;97330.31;5046617;28;20036;-71
2021/07/06 04:52:52;;;;;;;16.95;10.73;;;;;;;12.43;98.89;97332.25;5057541;28;20167;-71
2021/07/06 04:55:19;;;;;;;18.00;11.05;;;;;;;12.46;98.92;97330.03;5065593;28;20032;-71
2021/07/06 04:57:46;;;;;;;17.50;10.95;;;;;;;12.45;98.57;97318.41;5064660;28;20040;-71
2021/07/06 05:00:13;;;;;;;14.75;9.90;;;;;;;12.49;98.72;97322.09;5050434;28;20129;-71
2021/07/06 05:02:40;;;;;;;17.90;10.40;;;;;;;12.49;99.02;97330.19;5059533;28;20045;-71
2021/07/06 05:05:06;;;;;;;15.07;10.23;;;;;;;12.51;98.74;97321.78;5054008;28;20025;-72
2021/07/06 05:07:36;;;;;;;15.30;9.50;;;;;;;12.52;98.60;97320.66;5050480;28;20037;-71
2021/07/06 05:10:08;;;;;;;18.20;9.45;;;;;;;12.55;98.80;97326.22;5052950;28;20120;-71
2021/07/06 05:12:34;;;;;;;19.52;9.43;;;;;;;12.57;98.75;97326.69;5047926;28;20036;-71
2021/07/06 05:15:00;;;;;;;19.15;8.73;;;;;;;12.59;98.62;97323.69;5040877;28;20033;-71
2021/07/06 05:17:25;;;;;;;20.42;8.55;;;;;;;12.54;98.20;97321.16;5061304;28;20025;-70
2021/07/06 05:19:51;;;;;;;21.15;7.38;;;;;;;12.53;98.01;97314.94;5058101;28;20151;-71
2021/07/06 05:22:17;;;;;;;15.95;7.57;;;;;;;12.59;98.50;97318.31;5053428;28;20037;-71
2021/07/06 05:24:43;;;;;;;15.65;7.38;;;;;;;12.62;98.04;97319.56;5060055;28;20036;-71
2021/07/06 05:27:09;;;;;;;20.58;7.63;;;;;;;12.65;98.37;97324.34;5061064;28;20025;-72
2021/07/06 05:29:35;;;;;;;21.75;7.25;;;;;;;12.70;98.09;97324.19;5060956;28;20083;-70
2021/07/06 05:32:01;;;;;;;22.08;7.03;;;;;;;12.75;98.49;97324.03;5059694;28;20041;-70
2021/07/06 05:34:26;;;;;;;15.43;6.78;;;;;;;12.75;97.94;97324.03;5058247;28;20044;-70
2021/07/06 05:36:53;;;;;;;25.88;6.10;;;;;;;12.81;97.66;97319.28;5056881;28;20031;-70
2021/07/06 05:39:19;;;;;;;28.17;7.00;;;;;;;12.86;97.58;97322.59;5061202;28;20024;-71
2021/07/06 05:41:45;;;;;;;21.52;6.45;;;;;;;12.97;97.34;97319.59;5052134;28;20383;-70
2021/07/06 05:44:11;;;;;;;22.77;6.22;;;;;;;13.11;96.88;97320.22;5057829;28;20041;-70
2021/07/06 05:46:37;;;;;;;16.98;4.65;;;;;;;13.18;95.22;97327.84;5063695;28;20037;-69
2021/07/06 05:49:03;;;;;;;16.92;4.60;;;;;;;13.25;95.84;97322.75;5057054;28;20048;-69
2021/07/06 05:51:28;;;;;;;25.63;4.70;;;;;;;13.17;94.85;97324.34;5046492;28;20044;-70
2021/07/06 05:53:54;;;;;;;20.92;4.43;;;;;;;13.07;94.84;97323.88;5048404;28;20037;-69
2021/07/06 05:56:20;;;;;;;25.38;4.95;;;;;;;13.02;95.00;97322.13;5053885;28;20048;-68
2021/07/06 05:58:47;;;;;;;18.67;4.32;;;;;;;12.97;95.43;97322.28;5061738;28;20041;-68
2021/07/06 06:01:13;;;;;;;22.83;4.50;;;;;;;12.90;95.05;97330.88;5051118;28;20044;-69
2021/07/06 06:03:39;;;;;;;38.95;4.65;;;;;;;12.84;95.14;97324.81;5075777;28;20044;-69
2021/07/06 06:06:04;;;;;;;32.30;4.70;;;;;;;12.76;95.51;97328.31;5060163;28;20037;-69
2021/07/06 06:08:30;;;;;;;25.80;4.90;;;;;;;12.77;95.72;97327.19;5062821;28;20052;-68
2021/07/06 06:10:56;;;;;;;26.58;4.95;;;;;;;12.83;96.14;97327.84;5064715;28;20097;-68
2021/07/06 06:13:22;;;;;;;23.08;5.35;;;;;;;12.91;95.98;97328.97;5064945;28;20032;-68
2021/07/06 06:15:47;;;;;;;37.95;6.72;;;;;;;12.96;95.48;97318.00;5063899;28;20112;-69
2021/07/06 06:18:13;;;;;;;28.70;5.05;;;;;;;13.11;95.69;97328.31;5050986;28;20116;-68
2021/07/06 06:20:38;;;;;;;37.72;5.00;;;;;;;13.19;95.09;97324.03;5047942;28;20053;-71
2021/07/06 06:23:04;;;;;;;30.40;5.60;;;;;;;13.37;94.98;97329.44;5059866;28;20447;-73
2021/07/06 06:25:31;;;;;;;32.45;5.18;;;;;;;13.51;94.85;97326.59;5052684;28;20442;-71
2021/07/06 06:27:57;;;;;;;34.03;5.13;;;;;;;13.71;93.60;97330.50;5060452;28;20394;-71
2021/07/06 06:30:23;;;;;;;28.92;4.60;;;;;;;13.71;92.47;97335.91;5066945;28;20064;-71
2021/07/06 06:32:52;;;;;;;26.13;4.25;;;;;;;13.73;92.94;97325.56;5049518;28;20024;-71
2021/07/06 06:35:18;;;;;;;29.17;3.80;;;;;;;13.62;93.10;97335.94;5051836;28;20039;-73
2021/07/06 06:37:44;;;;;;;19.13;4.07;;;;;;;13.29;93.44;97331.03;5057101;28;20021;-77
2021/07/06 06:40:11;;;;;;;27.02;4.75;;;;;;;13.11;94.63;97332.94;5063849;28;20132;-77
2021/07/06 06:42:38;;;;;;;26.10;4.90;;;;;;;13.06;94.61;97341.22;5053851;28;20108;-76
2021/07/06 06:45:09;;;;;;;26.13;5.18;;;;;;;13.08;94.72;97336.28;5058387;28;20060;-77
2021/07/06 06:47:36;;;;;;;32.58;6.07;;;;;;;13.08;94.71;97341.69;5057255;28;20036;-75
2021/07/06 06:50:04;;;;;;;26.73;5.22;;;;;;;13.09;94.86;97338.66;4711675;27;10000327;-75
2021/07/06 06:52:30;;;;;;;21.50;4.82;;;;;;;13.10;95.01;97339.47;5053117;28;20037;-79
2021/07/06 06:54:56;;;;;;;34.40;5.38;;;;;;;13.06;94.54;97341.22;5046864;28;20036;-73
2021/07/06 06:57:22;;;;;;;30.67;5.90;;;;;;;13.08;94.70;97337.06;5055386;28;20043;-72
2021/07/06 06:59:51;;;;;;;35.20;5.90;;;;;;;13.17;94.80;97331.66;5053220;28;20555;-70
2021/07/06 07:02:18;;;;;;;32.45;5.22;;;;;;;13.29;94.87;97344.56;5050711;28;20115;-70
2021/07/06 07:04:52;;;;;;;35.53;7.13;;;;;;;13.38;94.82;97350.75;5064731;28;20032;-70
2021/07/06 07:07:20;;;;;;;36.05;5.35;;;;;;;13.48;93.57;97338.03;5042281;28;20128;-71
2021/07/06 07:09:46;;;;;;;28.30;4.75;;;;;;;13.50;93.46;97346.63;5065110;28;20020;-71
2021/07/06 07:12:12;;;;;;;29.13;4.63;;;;;;;13.49;92.79;97343.13;5054637;28;20730;-71
2021/07/06 07:14:39;;;;;;;24.77;4.10;;;;;;;13.66;92.66;97334.19;5046325;28;20126;-71
2021/07/06 07:17:06;;;;;;;28.33;4.60;;;;;;;13.65;92.92;97340.72;5058042;28;20037;-71
2021/07/06 07:19:32;;;;;;;22.60;3.80;;;;;;;13.66;91.19;97345.00;5048736;28;20043;-71
2021/07/06 07:21:57;;;;;;;20.35;3.67;;;;;;;13.72;92.15;97345.59;5058731;28;20033;-72
2021/07/06 07:24:24;;;;;;;30.42;4.13;;;;;;;13.73;91.84;97352.59;5061851;28;20079;-72
2021/07/06 07:26:50;;;;;;;24.85;4.05;;;;;;;13.73;91.22;97353.41;5069354;28;20478;-71
2021/07/06 07:29:16;;;;;;;21.50;3.72;;;;;;;13.75;91.00;97347.66;5055098;28;20382;-71
2021/07/06 07:31:42;;;;;;;26.45;4.13;;;;;;;13.74;90.65;97355.00;5045365;28;20044;-70
2021/07/06 07:34:08;;;;;;;25.38;4.95;;;;;;;13.69;90.70;97348.97;5050057;28;20032;-70
2021/07/06 07:36:34;;;;;;;23.23;3.78;;;;;;;13.80;89.79;97352.13;5061203;28;20040;-70
2021/07/06 07:39:00;;;;;;;29.27;4.28;;;;;;;13.61;89.98;97347.88;5044173;28;20039;-70
2021/07/06 07:41:28;;;;;;;23.85;3.83;;;;;;;13.68;91.35;97355.47;5054427;28;20031;-70
2021/07/06 07:43:54;;;;;;;24.58;3.60;;;;;;;13.77;91.33;97348.13;5050778;28;20037;-70
2021/07/06 07:46:23;;;;;;;28.08;3.67;;;;;;;13.97;90.42;97359.38;5054723;28;20044;-70
2021/07/06 07:48:49;;;;;;;23.83;4.05;;;;;;;14.05;90.21;97353.94;5069590;28;20028;-70
2021/07/06 07:51:16;;;;;;;28.75;3.97;;;;;;;13.90;89.09;97357.97;5051190;28;20489;-70
2021/07/06 07:53:42;;;;;;;22.10;4.45;;;;;;;13.89;88.86;97350.97;5052435;28;20112;-70
2021/07/06 07:56:08;;;;;;;26.88;3.75;;;;;;;13.96;87.81;97353.19;5055662;28;20098;-69
2021/07/06 07:58:34;;;;;;;15.98;3.38;;;;;;;14.06;87.90;97354.72;5066048;28;20036;-70
2021/07/06 08:00:59;;;;;;;26.60;3.50;;;;;;;14.13;88.05;97348.84;5044086;28;20052;-69
2021/07/06 08:03:25;;;;;;;21.17;3.50;;;;;;;14.31;87.18;97361.16;5048961;28;20029;-70
2021/07/06 08:05:51;;;;;;;20.52;3.30;;;;;;;14.85;89.28;97348.94;5063581;28;20481;-71
2021/07/06 08:08:17;;;;;;;14.55;2.47;;;;;;;15.14;84.92;97346.50;5062313;28;20040;-71
2021/07/06 08:10:43;;;;;;;11.95;1.80;;;;;;;15.21;86.03;97344.03;5068941;28;20044;-71
2021/07/06 08:13:09;;;;;;;10.90;2.15;;;;;;;15.25;83.15;97352.31;5061366;28;20544;-71
2021/07/06 08:15:36;;;;;;;13.10;1.92;;;;;;;15.32;84.99;97339.81;5070744;28;20117;-71
2021/07/06 08:18:02;;;;;;;10.55;2.15;;;;;;;15.62;84.28;97341.59;5062225;28;20132;-70
2021/07/06 08:20:28;;;;;;;2.20;0.88;;;;;;;15.65;82.06;97354.50;5059634;28;20079;-70
2021/07/06 08:22:56;;;;;;;2.67;0.63;;;;;;;15.63;82.38;97349.41;5052775;28;20032;-69
2021/07/06 08:25:24;;;;;;;0.75;0.60;;;;;;;15.57;81.15;97349.97;5051146;28;20032;-69
2021/07/06 08:27:51;;;;;;;4.68;0.80;;;;;;;15.62;82.74;97360.59;5050275;28;20025;-70
2021/07/06 08:30:17;;;;;;;2.67;0.80;;;;;;;15.64;82.58;97350.97;5055953;28;20055;-69
2021/07/06 08:32:43;;;;;;;0.77;0.60;;;;;;;15.63;80.25;97356.75;4704542;28;10000189;-69
2021/07/06 08:35:10;;;;;;;2.20;0.90;;;;;;;15.68;81.96;97364.69;5043803;28;20056;-69
2021/07/06 08:37:36;;;;;;;5.43;0.50;;;;;;;15.60;79.83;97363.63;5058419;28;20037;-69
2021/07/06 08:40:07;;;;;;;3.05;0.90;;;;;;;15.44;79.95;97366.19;5069781;28;20111;-69
2021/07/06 08:42:35;;;;;;;0.52;0.52;;;;;;;15.24;79.82;97364.28;5048969;28;20036;-69
2021/07/06 08:45:01;;;;;;;0.90;0.65;;;;;;;14.81;82.22;97368.91;5051301;28;20105;-69
2021/07/06 08:47:30;;;;;;;2.92;0.77;;;;;;;14.66;82.53;97375.66;5049518;28;20037;-69
2021/07/06 08:49:56;;;;;;;1.08;0.90;;;;;;;14.78;82.84;97378.47;5064361;28;20590;-69
2021/07/06 08:52:22;;;;;;;3.00;0.85;;;;;;;14.80;81.49;97376.22;5060259;28;20110;-69
2021/07/06 08:54:49;;;;;;;2.30;1.23;;;;;;;14.72;84.60;97379.78;5051190;28;20617;-69
2021/07/06 08:57:21;;;;;;;1.42;1.00;;;;;;;15.00;82.89;97388.22;5060625;28;20033;-69
2021/07/06 08:59:49;;;;;;;1.48;1.25;;;;;;;14.96;83.83;97383.78;5056141;28;20119;-69
2021/07/06 09:02:20;;;;;;;37.03;2.00;;;;;;;15.19;84.78;97385.06;5049310;28;20037;-69
2021/07/06 09:04:46;;;;;;;1.45;1.35;;;;;;;15.50;83.68;97385.75;5058790;28;20025;-69
2021/07/06 09:07:12;;;;;;;1.27;0.82;;;;;;;15.67;81.94;97384.81;5064930;28;20120;-69
2021/07/06 09:09:38;;;;;;;3.55;0.82;;;;;;;15.73;81.20;97378.03;5059985;28;20099;-69
2021/07/06 09:12:05;;;;;;;1.23;0.80;;;;;;;15.78;80.47;97385.16;5062020;28;21508;-69
2021/07/06 09:14:32;;;;;;;0.70;0.70;;;;;;;16.09;80.90;97389.34;5071500;28;20036;-69
2021/07/06 09:17:07;;;;;;;0.55;0.52;;;;;;;16.38;77.46;97391.06;5058409;28;20032;-68
2021/07/06 09:19:33;;;;;;;0.52;0.38;;;;;;;16.65;75.13;97388.03;5058693;28;20084;-68
2021/07/06 09:22:17;;;;;;;1.23;0.47;;;;;;;16.75;77.31;97384.84;5049101;28;20067;-69
2021/07/06 09:24:48;;;;;;;0.30;0.30;;;;;;;16.51;76.25;97391.06;5062913;28;20036;-68
2021/07/06 09:27:26;;;;;;;0.70;0.50;;;;;;;16.26;76.67;97396.50;5053468;28;20036;-68
2021/07/06 09:30:01;;;;;;;0.40;0.40;;;;;;;16.43;78.47;97392.78;5058476;28;20082;-68
2021/07/06 09:32:26;;;;;;;1.35;0.70;;;;;;;16.47;78.43;97396.41;5049686;28;20112;-68
2021/07/06 09:34:53;;;;;;;1.55;0.80;;;;;;;16.50;78.88;97401.16;5058507;28;20032;-68
2021/07/06 09:37:19;;;;;;;0.40;0.40;;;;;;;16.36;76.56;97396.06;5059139;28;20086;-68
2021/07/06 09:39:44;;;;;;;0.85;0.55;;;;;;;16.17;76.84;97403.94;5053395;28;20116;-68
2021/07/06 09:42:14;;;;;;;0.30;0.30;;;;;;;16.42;76.93;97406.69;5046702;28;20044;-68
2021/07/06 09:44:41;;;;;;;0.70;0.50;;;;;;;16.49;75.73;97401.50;5056213;28;20518;-68
2021/07/06 09:47:09;;;;;;;0.52;0.40;;;;;;;16.76;74.79;97404.66;5060272;28;20033;-68
2021/07/06 09:49:36;;;;;;;0.73;0.52;;;;;;;16.55;74.08;97405.56;5065656;28;20052;-68
2021/07/06 09:52:16;;;;;;;0.60;0.50;;;;;;;16.35;76.77;97410.00;5049782;28;20036;-68
2021/07/06 09:54:48;;;;;;;2.33;0.50;;;;;;;16.30;76.66;97410.97;5065471;28;20033;-68
2021/07/06 09:57:23;;;;;;;3.80;0.70;;;;;;;16.33;74.74;97415.75;5070411;28;20067;-68
2021/07/06 09:59:53;;;;;;;1.02;0.70;;;;;;;16.12;76.18;97421.28;5044415;28;20443;-67
2021/07/06 10:02:20;;;;;;;3.95;0.90;;;;;;;16.35;74.44;97418.13;5057447;28;20037;-68
2021/07/06 10:04:47;;;;;;;2.47;1.10;;;;;;;16.50;73.53;97419.38;5054800;28;20136;-67
2021/07/06 10:07:13;;;;;;;4.72;1.30;;;;;;;16.48;74.55;97422.44;5063370;28;20040;-68
2021/07/06 10:09:39;;;;;;;5.15;1.90;;;;;;;16.59;74.21;97436.38;5058271;28;20036;-67
2021/07/06 10:12:08;;;;;;;5.43;2.75;;;;;;;16.83;74.86;97445.69;5052990;28;20037;-68
2021/07/06 10:14:34;;;;;;;4.88;3.30;;;;;;;17.01;70.69;97446.25;5048197;28;20170;-68
2021/07/06 10:17:01;;;;;;;6.25;2.53;;;;;;;16.83;72.58;97449.16;5060962;28;20119;-67
2021/07/06 10:19:26;;;;;;;1.38;0.93;;;;;;;16.68;70.66;97450.63;5045536;28;20033;-68
2021/07/06 10:21:52;;;;;;;0.75;0.63;;;;;;;16.71;72.83;97461.94;5059247;28;20525;-68
2021/07/06 10:24:19;;;;;;;1.17;0.50;;;;;;;16.60;69.99;97467.84;5050503;28;20041;-68
2021/07/06 10:26:47;;;;;;;0.90;0.50;;;;;;;16.56;70.90;97469.66;5046431;28;20025;-68
2021/07/06 10:29:12;;;;;;;0.20;0.20;;;;;;;16.50;72.82;97466.38;5057002;28;20130;-68
2021/07/06 10:31:43;;;;;;;1.25;0.30;;;;;;;16.22;74.57;97488.72;5060270;28;20108;-69
2021/07/06 10:34:20;;;;;;;5.80;0.63;;;;;;;15.38;83.80;97505.84;5047221;28;20115;-78
2021/07/06 10:36:46;;;;;;;2.13;0.60;;;;;;;14.55;86.78;97492.50;5059959;28;20060;-75
2021/07/06 10:39:13;;;;;;;3.35;0.85;;;;;;;14.34;90.22;97503.25;5046759;28;20076;-75
2021/07/06 10:41:39;;;;;;;20.65;1.35;;;;;;;14.24;91.63;97500.88;5050460;28;20471;-74
2021/07/06 10:44:06;;;;;;;3.95;0.75;;;;;;;14.11;91.37;97505.34;5059597;28;20123;-74
2021/07/06 10:46:38;;;;;;;0.88;0.50;;;;;;;14.05;91.71;97515.53;5054922;28;20043;-74
2021/07/06 10:49:16;;;;;;;0.93;0.52;;;;;;;14.08;91.01;97528.41;5060230;28;20032;-74
2021/07/06 10:51:41;;;;;;;5.88;0.85;;;;;;;14.17;90.37;97531.94;5055679;28;20076;-73
2021/07/06 10:54:19;;;;;;;6.53;0.65;;;;;;;14.43;91.80;97535.69;5056966;28;20032;-73
2021/07/06 10:56:45;;;;;;;0.77;0.38;;;;;;;14.60;88.07;97538.38;5051764;28;20052;-73
2021/07/06 10:59:37;;;;;;;0.57;0.43;;;;;;;14.58;88.14;97543.31;5060252;28;20423;-73
2021/07/06 11:02:03;;;;;;;0.75;0.40;;;;;;;14.44;89.85;97548.94;5055208;28;20049;-72
2021/07/06 11:07:05;;;;;;;0.75;0.25;;;;;;;14.34;87.58;97570.94;5061419;28;20082;-72
2021/07/06 11:09:34;;;;;;;0.88;0.40;;;;;;;14.16;88.17;97557.44;5056575;28;20028;-73
2021/07/06 11:12:32;;;;;;;0.40;0.40;;;;;;;14.25;88.96;97570.94;5059259;28;20478;-72
2021/07/06 11:14:58;;;;;;;0.40;0.40;;;;;;;14.29;86.63;97571.09;5058073;28;20025;-72
2021/07/06 11:17:35;;;;;;;3.70;0.30;;;;;;;14.47;86.22;97569.97;5066112;28;20037;-72
2021/07/06 11:20:04;;;;;;;2.33;0.40;;;;;;;14.65;85.45;97575.34;5055177;28;20473;-72
2021/07/06 11:22:45;;;;;;;0.90;0.38;;;;;;;14.85;84.13;97584.69;5044323;28;20029;-73
2021/07/06 11:25:22;;;;;;;0.50;0.30;;;;;;;14.83;83.40;97600.47;5045710;28;20033;-72
2021/07/06 11:28:03;;;;;;;1.10;0.50;;;;;;;14.85;81.15;97595.53;5050900;28;20033;-72
2021/07/06 11:30:34;;;;;;;1.45;0.47;;;;;;;15.03;81.56;97606.34;5045651;28;20047;-71
2021/07/06 11:33:10;;;;;;;0.45;0.40;;;;;;;15.05;78.84;97606.81;5060563;28;20040;-71